createdAt,value
2017-01-26T00:07:57.736Z,-1.48
2017-01-26T00:08:51.208Z,-1.5
2017-01-26T00:09:23.022Z,-1.43
2017-01-26T00:09:54.698Z,-1.45
2017-01-26T00:10:26.384Z,-1.48
2017-01-26T00:10:57.924Z,-1.46
2017-01-26T00:11:49.670Z,-1.46
2017-01-26T00:12:43.215Z,-1.48
2017-01-26T00:13:15.130Z,-1.46
2017-01-26T00:13:46.639Z,-1.4
2017-01-26T00:14:18.277Z,-1.48
2017-01-26T00:14:50.230Z,-1.51
2017-01-26T00:15:21.669Z,-1.43
2017-01-26T00:16:15.273Z,-1.5
2017-01-26T00:16:47.096Z,-1.51
2017-01-26T00:17:18.421Z,-1.51
2017-01-26T00:17:50.056Z,-1.51
2017-01-26T00:18:21.908Z,-1.48
2017-01-26T00:18:54.177Z,-1.46
2017-01-26T00:19:25.373Z,-1.48
2017-01-26T00:19:57.626Z,-1.46
2017-01-26T00:20:28.668Z,-1.4
2017-01-26T00:21:00.642Z,-1.48
2017-01-26T00:21:32.739Z,-1.42
2017-01-26T00:22:04.029Z,-1.38
2017-01-26T00:22:34.038Z,-1.48
2017-01-26T00:23:03.665Z,-1.48
2017-01-26T05:07:14.252Z,-1.57
2017-01-26T05:08:07.740Z,-1.58
2017-01-26T05:08:39.677Z,-1.56
2017-01-26T05:09:11.559Z,-1.56
2017-01-26T05:09:43.198Z,-1.51
2017-01-26T05:10:14.674Z,-1.51
2017-01-26T05:11:08.035Z,-1.61
2017-01-26T05:11:39.683Z,-1.6
2017-01-26T05:12:11.871Z,-1.6
2017-01-26T06:07:14.369Z,-1.72
2017-01-26T06:08:07.671Z,-1.64
2017-01-26T06:08:39.779Z,-1.84
2017-01-26T06:09:11.374Z,-1.78
2017-01-26T06:09:43.245Z,-1.72
2017-01-26T06:10:15.043Z,-1.74
2017-01-26T06:11:08.322Z,-1.82
2017-01-26T06:11:40.255Z,-1.74
2017-01-26T06:12:11.758Z,-1.82
2017-01-26T06:12:43.327Z,-1.84
2017-01-26T06:13:15.489Z,-1.86
2017-01-26T06:13:47.083Z,-1.79
2017-01-26T06:14:18.461Z,-1.84
2017-01-26T06:14:50.429Z,-1.79
2017-01-26T06:15:22.308Z,-1.87
2017-01-26T07:08:00.410Z,-1.82
2017-01-26T07:08:53.674Z,-1.9
2017-01-26T07:09:25.516Z,-1.82
2017-01-26T07:09:57.158Z,-1.89
2017-01-26T07:10:29.195Z,-1.9
2017-01-26T07:11:00.742Z,-1.89
2017-01-26T07:11:32.599Z,-1.86
2017-01-26T07:12:04.516Z,-1.79
2017-01-26T07:12:35.824Z,-1.89
2017-01-26T07:13:07.970Z,-1.93
2017-01-26T07:13:39.223Z,-1.86
2017-01-26T07:14:11.102Z,-1.94
2017-01-26T07:14:42.773Z,-1.92
2017-01-26T07:15:34.745Z,-1.93
2017-01-26T07:16:06.373Z,-1.92
2017-01-26T07:16:38.123Z,-1.9
2017-01-26T07:17:09.995Z,-1.9
2017-01-26T07:17:41.408Z,-1.89
2017-01-26T07:18:13.164Z,-1.87
2017-01-26T07:18:45.373Z,-1.9
2017-01-26T07:19:16.676Z,-1.82
2017-01-26T07:19:48.559Z,-1.93
2017-01-26T07:20:20.210Z,-1.93
2017-01-26T07:21:13.614Z,-1.93
2017-01-26T07:21:45.218Z,-1.92
2017-01-26T07:22:17.072Z,-1.86
2017-01-26T07:22:48.619Z,-1.86
2017-01-26T07:23:20.526Z,-1.87
2017-01-26T07:23:52.467Z,-1.79
2017-01-26T07:24:23.808Z,-1.81
2017-01-26T07:24:55.915Z,-1.93
2017-01-26T07:25:27.233Z,-1.86
2017-01-26T07:25:58.803Z,-1.82
2017-01-26T07:26:30.971Z,-1.82
2017-01-26T07:27:45.770Z,-1.81
2017-01-26T07:28:17.718Z,-1.84
2017-01-26T07:28:49.216Z,-1.86
2017-01-26T07:29:20.923Z,-1.81
2017-01-26T07:29:52.731Z,-1.84
2017-01-26T07:30:23.817Z,-1.84
2017-01-26T07:30:56.209Z,-1.82
2017-01-26T07:31:28.100Z,-1.78
2017-01-26T07:31:59.849Z,-1.78
2017-01-26T07:32:31.197Z,-1.79
2017-01-26T07:33:03.081Z,-1.79
2017-01-26T07:33:56.493Z,-1.81
2017-01-26T07:34:28.150Z,-1.75
2017-01-26T07:35:00.037Z,-1.75
2017-01-26T07:35:31.532Z,-1.79
2017-01-26T08:09:33.462Z,-0.97
2017-01-26T08:10:26.911Z,-0.93
2017-01-26T08:10:58.862Z,-0.89
2017-01-26T08:11:30.485Z,-0.89
2017-01-26T08:12:02.361Z,-0.87
2017-01-26T08:12:33.546Z,-0.89
2017-01-26T08:13:05.735Z,-0.77
2017-01-26T08:13:37.658Z,-0.93
2017-01-26T08:14:08.948Z,-0.87
2017-01-26T08:14:40.565Z,-0.93
2017-01-26T08:15:12.871Z,-0.87
2017-01-26T08:15:44.299Z,-0.93
2017-01-26T08:16:16.382Z,-0.93
2017-01-26T08:17:09.428Z,-0.78
2017-01-26T08:17:41.294Z,-0.81
2017-01-26T08:18:12.886Z,-0.82
2017-01-26T08:18:44.915Z,-0.77
2017-01-26T08:19:16.690Z,-0.81
2017-01-26T08:19:48.235Z,-0.7
2017-01-26T08:20:20.183Z,-0.72
2017-01-26T08:20:51.530Z,-0.69
2017-01-26T08:21:23.718Z,-0.67
2017-01-26T08:21:58.528Z,-0.67
2017-01-26T08:22:50.969Z,-0.62
2017-01-26T08:23:22.951Z,-0.56
2017-01-26T08:23:54.686Z,-0.62
2017-01-26T08:24:26.346Z,-0.6
2017-01-26T08:24:58.007Z,-0.62
2017-01-26T08:25:29.797Z,-0.45
2017-01-26T08:26:01.896Z,-0.46
2017-01-26T08:26:33.007Z,-0.54
2017-01-26T08:27:02.912Z,-0.48
2017-01-26T09:07:55.255Z,0.81
2017-01-26T09:08:47.273Z,0.84
2017-01-26T09:09:18.997Z,0.78
2017-01-26T09:09:50.463Z,0.76
2017-01-26T09:10:22.384Z,0.7
2017-01-26T09:10:54.386Z,0.68
2017-01-26T09:11:26.221Z,0.63
2017-01-26T09:11:57.526Z,0.61
2017-01-26T09:12:29.453Z,0.52
2017-01-26T09:13:01.019Z,0.45
2017-01-26T09:13:31.450Z,0.48
2017-01-26T09:14:03.439Z,0.44
2017-01-26T09:14:35.838Z,0.44
2017-01-26T09:15:07.018Z,0.51
2017-01-26T09:15:38.815Z,0.47
2017-01-26T09:16:10.766Z,0.47
2017-01-26T09:16:42.407Z,0.51
2017-01-26T09:17:13.918Z,0.59
2017-01-26T09:17:45.761Z,0.71
2017-01-26T09:18:17.381Z,0.82
2017-01-26T09:19:11.119Z,0.89
2017-01-26T09:19:42.586Z,0.85
2017-01-26T09:20:14.313Z,0.88
2017-01-26T09:20:43.925Z,0.95
2017-01-26T09:21:13.924Z,0.99
2017-01-26T10:07:44.935Z,4.64
2017-01-26T10:08:16.489Z,4.56
2017-01-26T10:08:47.948Z,4.52
2017-01-26T10:09:19.624Z,4.42
2017-01-26T10:09:51.553Z,4.4
2017-01-26T10:10:22.996Z,4.52
2017-01-26T10:10:54.885Z,4.71
2017-01-26T10:11:26.857Z,4.92
2017-01-26T10:11:58.443Z,5.04
2017-01-26T10:12:30.414Z,5.41
2017-01-26T10:13:01.849Z,5.64
2017-01-26T10:13:33.517Z,5.9
2017-01-26T10:14:05.117Z,6.19
2017-01-26T10:14:36.226Z,6.57
2017-01-26T10:15:08.564Z,6.77
2017-01-26T10:15:40.384Z,7.05
2017-01-26T10:16:12.263Z,7.31
2017-01-26T10:16:43.628Z,7.61
2017-01-26T10:17:15.431Z,7.96
2017-01-26T10:17:47.095Z,8.32
2017-01-26T10:18:19.140Z,8.6
2017-01-26T10:18:50.569Z,9
2017-01-26T10:19:22.197Z,9.31
2017-01-26T10:19:54.298Z,9.52
2017-01-26T10:20:25.692Z,9.82
2017-01-26T10:20:57.783Z,9.91
2017-01-26T10:21:29.329Z,10.09
2017-01-26T10:22:01.002Z,10.21
2017-01-26T10:22:54.292Z,10.33
2017-01-26T10:23:26.490Z,10.21
2017-01-26T10:23:57.656Z,10.23
2017-01-26T10:24:29.527Z,10.2
2017-01-26T10:25:01.386Z,9.99
2017-01-26T10:25:33.304Z,9.81
2017-01-26T10:26:05.182Z,9.66
2017-01-26T10:26:36.779Z,9.51
2017-01-26T10:27:29.978Z,9.34
2017-01-26T10:28:01.524Z,9.31
2017-01-26T10:28:33.453Z,9.34
2017-01-26T10:29:05.325Z,9.42
2017-01-26T10:29:36.693Z,9.42
2017-01-26T10:30:08.695Z,9.54
2017-01-26T10:30:40.145Z,9.66
2017-01-26T10:31:12.149Z,9.74
2017-01-26T10:31:43.668Z,9.87
2017-01-26T10:32:15.524Z,9.95
2017-01-26T10:32:47.147Z,9.92
2017-01-26T10:33:18.984Z,10.02
2017-01-26T10:33:50.675Z,10
2017-01-26T10:34:22.437Z,10.03
2017-01-26T10:34:54.329Z,10.03
2017-01-26T10:35:25.974Z,10.02
2017-01-26T10:35:57.485Z,10.02
2017-01-26T10:36:29.502Z,10
2017-01-26T10:37:01.921Z,10.07
2017-01-26T11:08:06.756Z,13.17
2017-01-26T11:09:00.461Z,13.19
2017-01-26T11:09:31.378Z,13.19
2017-01-26T11:10:25.176Z,13.17
2017-01-26T11:10:57.091Z,13.19
2017-01-26T11:11:28.239Z,13.33
2017-01-26T11:12:00.560Z,13.49
2017-01-26T11:12:32.292Z,13.62
2017-01-26T11:13:04.367Z,13.89
2017-01-26T11:13:55.437Z,14.12
2017-01-26T11:14:27.558Z,14.18
2017-01-26T11:14:59.115Z,14.23
2017-01-26T11:15:30.690Z,14.4
2017-01-26T11:16:02.230Z,14.52
2017-01-26T11:16:33.872Z,14.58
2017-01-26T11:17:04.373Z,14.63
2017-01-26T11:17:58.091Z,14.85
2017-01-26T11:18:30.230Z,14.99
2017-01-26T11:19:01.899Z,15.08
2017-01-26T11:19:31.206Z,15.35
2017-01-26T12:07:34.481Z,20.5
2017-01-26T12:08:27.690Z,20.14
2017-01-26T12:09:21.533Z,19.96
2017-01-26T12:10:14.924Z,19.77
2017-01-26T12:11:08.075Z,19.92
2017-01-26T12:12:01.653Z,20.14
2017-01-26T12:12:54.934Z,20.19
2017-01-26T12:13:47.060Z,20.39
2017-01-26T12:14:40.053Z,20.63
2017-01-26T12:15:31.803Z,20.68
2017-01-26T13:07:54.358Z,16.99
2017-01-26T13:08:25.289Z,16.8
2017-01-26T13:08:56.634Z,16.66
2017-01-26T13:09:28.494Z,16.5
2017-01-26T13:09:59.956Z,16.44
2017-01-26T13:10:31.892Z,16.29
2017-01-26T13:11:03.471Z,16.37
2017-01-26T13:11:35.469Z,16.25
2017-01-26T13:12:07.191Z,16.17
2017-01-26T13:12:38.931Z,16.06
2017-01-26T13:13:10.893Z,15.98
2017-01-26T13:13:42.164Z,15.83
2017-01-26T13:14:13.767Z,15.69
2017-01-26T13:14:44.762Z,15.52
2017-01-26T13:15:19.422Z,15.39
2017-01-26T13:15:51.030Z,15.33
2017-01-26T13:16:21.119Z,15.26
2017-01-26T13:17:14.966Z,15.33
2017-01-26T13:17:46.626Z,15.36
2017-01-26T13:18:40.050Z,15.27
2017-01-26T13:19:11.972Z,15.35
2017-01-26T13:19:41.586Z,15.3
2017-01-26T13:20:11.485Z,15.44
2017-01-26T14:06:36.745Z,7.18
2017-01-26T14:07:08.843Z,7.03
2017-01-26T14:07:40.272Z,7
2017-01-26T14:08:12.198Z,6.89
2017-01-26T14:08:43.787Z,6.85
2017-01-26T14:09:15.612Z,6.8
2017-01-26T14:09:47.521Z,6.77
2017-01-26T14:10:18.937Z,6.71
2017-01-26T14:10:50.589Z,6.6
2017-01-26T14:11:22.292Z,6.65
2017-01-26T14:11:54.300Z,6.54
2017-01-26T14:12:25.677Z,6.44
2017-01-26T14:12:57.639Z,6.41
2017-01-26T14:13:49.353Z,6.39
2017-01-26T14:14:20.829Z,6.25
2017-01-26T14:14:52.724Z,6.28
2017-01-26T14:15:24.536Z,6.25
2017-01-26T14:15:55.971Z,6.12
2017-01-26T14:16:27.687Z,6.12
2017-01-26T14:16:59.278Z,5.92
2017-01-26T14:17:52.698Z,5.76
2017-01-26T14:18:46.234Z,5.59
2017-01-26T14:19:17.802Z,5.54
2017-01-26T14:19:49.484Z,5.4
2017-01-26T14:20:21.476Z,5.38
2017-01-26T14:20:51.898Z,5.25
2017-01-26T14:21:24.045Z,5.26
2017-01-26T14:21:55.672Z,5.18
2017-01-26T14:22:27.628Z,5.07
2017-01-26T14:22:59.436Z,5.12
2017-01-26T14:23:30.743Z,4.98
2017-01-26T14:24:02.980Z,4.95
2017-01-26T14:24:34.154Z,5.02
2017-01-26T14:25:27.621Z,4.89
2017-01-26T14:25:59.525Z,4.92
2017-01-26T14:26:31.434Z,4.9
2017-01-26T14:27:03.179Z,4.82
2017-01-26T14:27:33.641Z,4.82
2017-01-26T14:28:05.310Z,4.78
2017-01-26T14:28:37.146Z,4.75
2017-01-26T14:29:06.710Z,4.79
2017-01-26T14:30:16.871Z,4.71
2017-01-26T15:07:19.500Z,2.75
2017-01-26T15:07:51.255Z,2.76
2017-01-26T15:08:23.272Z,2.76
2017-01-26T15:08:55.118Z,2.79
2017-01-26T15:09:26.384Z,2.77
2017-01-26T15:09:58.738Z,2.7
2017-01-26T15:10:29.875Z,2.75
2017-01-26T15:11:01.705Z,2.65
2017-01-26T15:11:33.387Z,2.69
2017-01-26T15:12:05.332Z,2.69
2017-01-26T15:12:36.666Z,2.59
2017-01-26T15:13:08.823Z,2.59
2017-01-26T15:13:40.643Z,2.54
2017-01-26T15:14:11.913Z,2.51
2017-01-26T15:14:44.012Z,2.58
2017-01-26T15:15:15.437Z,2.55
2017-01-26T15:15:47.239Z,2.5
2017-01-26T15:16:18.904Z,2.37
2017-01-26T15:16:50.703Z,2.5
2017-01-26T15:17:22.832Z,2.52
2017-01-26T15:17:54.400Z,2.5
2017-01-26T15:18:25.856Z,2.43
2017-01-26T15:18:57.420Z,2.4
2017-01-26T15:19:29.765Z,2.39
2017-01-26T15:20:00.915Z,2.4
2017-01-26T15:20:32.970Z,2.41
2017-01-26T15:21:04.424Z,2.37
2017-01-26T15:21:36.316Z,2.26
2017-01-26T15:22:07.917Z,2.25
2017-01-26T15:22:39.485Z,2.23
2017-01-26T15:23:11.668Z,2.21
2017-01-26T15:23:43.042Z,2.26
2017-01-26T15:24:15.203Z,2.26
2017-01-26T15:24:46.704Z,2.21
2017-01-26T15:25:18.247Z,2.23
2017-01-26T15:25:49.875Z,2.15
2017-01-26T15:26:21.938Z,2.15
2017-01-26T15:26:53.799Z,2.15
2017-01-26T15:27:25.250Z,2.16
2017-01-26T15:27:56.878Z,2.01
2017-01-26T15:28:28.506Z,2.12
2017-01-26T15:29:00.635Z,2.01
2017-01-26T15:29:32.254Z,2.05
2017-01-26T15:30:03.767Z,1.95
2017-01-26T15:30:57.003Z,1.92
2017-01-26T15:31:28.865Z,1.92
2017-01-26T15:32:00.486Z,1.79
2017-01-26T15:32:32.187Z,1.88
2017-01-26T15:33:03.757Z,1.85
2017-01-26T15:33:35.867Z,1.71
2017-01-26T15:34:07.356Z,1.79
2017-01-26T15:34:39.049Z,1.76
2017-01-26T15:35:30.780Z,1.78
2017-01-26T15:36:02.782Z,1.67
2017-01-26T15:36:34.257Z,1.71
2017-01-26T15:37:05.860Z,1.64
2017-01-26T15:37:37.747Z,1.64
2017-01-26T16:07:00.670Z,0.84
2017-01-26T16:07:32.540Z,0.81
2017-01-26T16:08:04.184Z,0.78
2017-01-26T16:08:36.128Z,0.82
2017-01-26T16:09:07.918Z,0.73
2017-01-26T16:09:39.310Z,0.76
2017-01-26T16:10:11.483Z,0.77
2017-01-26T16:11:04.625Z,0.7
2017-01-26T16:11:36.082Z,0.66
2017-01-26T16:12:08.064Z,0.73
2017-01-26T16:12:39.673Z,0.66
2017-01-26T16:13:11.352Z,0.66
2017-01-26T16:13:43.443Z,0.63
2017-01-26T16:14:37.013Z,0.68
2017-01-26T16:15:08.073Z,0.67
2017-01-26T16:15:40.023Z,0.61
2017-01-26T16:16:33.617Z,0.55
2017-01-26T16:17:27.412Z,0.61
2017-01-26T16:18:20.547Z,0.55
2017-01-26T16:18:52.041Z,0.52
2017-01-26T16:19:23.814Z,0.55
2017-01-26T16:19:55.712Z,0.55
2017-01-26T16:20:27.460Z,0.49
2017-01-26T16:20:59.492Z,0.52
2017-01-26T16:21:50.663Z,0.58
2017-01-26T16:22:22.900Z,0.56
2017-01-26T16:22:54.377Z,0.55
2017-01-26T16:23:26.145Z,0.51
2017-01-26T16:23:58.027Z,0.37
2017-01-26T16:24:29.635Z,0.51
2017-01-26T16:25:01.147Z,0.48
2017-01-26T16:25:32.948Z,0.49
2017-01-26T16:26:04.785Z,0.47
2017-01-26T16:26:36.404Z,0.48
2017-01-26T16:27:08.289Z,0.45
2017-01-26T16:27:39.824Z,0.44
2017-01-26T16:28:11.609Z,0.44
2017-01-26T16:28:43.214Z,0.39
2017-01-26T16:29:14.818Z,0.39
2017-01-26T16:29:46.491Z,0.33
2017-01-26T16:30:18.505Z,0.39
2017-01-26T16:30:50.435Z,0.36
2017-01-26T16:31:21.825Z,0.33
2017-01-26T16:31:53.667Z,0.24
2017-01-26T16:32:26.037Z,0.29
2017-01-26T16:33:18.078Z,0.26
2017-01-26T16:34:11.632Z,0.18
2017-01-26T16:34:44.129Z,0.24
2017-01-26T16:35:13.532Z,0.16
2017-01-26T16:35:45.313Z,0.13
2017-01-26T17:07:36.418Z,-0.23
2017-01-26T17:08:08.296Z,-0.36
2017-01-26T17:09:01.773Z,-0.38
2017-01-26T17:09:33.299Z,-0.38
2017-01-26T17:10:04.999Z,-0.39
2017-01-26T17:10:36.772Z,-0.3
2017-01-26T17:11:08.727Z,-0.31
2017-01-26T17:11:40.551Z,-0.42
2017-01-26T17:12:54.130Z,-0.39
2017-01-26T17:13:25.647Z,-0.46
2017-01-26T17:14:19.178Z,-0.49
2017-01-26T17:14:50.817Z,-0.51
2017-01-26T17:15:22.753Z,-0.51
2017-01-26T17:15:54.131Z,-0.56
2017-01-26T17:16:27.407Z,-0.59
2017-01-26T17:16:58.568Z,-0.57
2017-01-26T17:17:30.144Z,-0.56
2017-01-26T17:18:21.667Z,-0.63
2017-01-26T17:18:54.108Z,-0.62
2017-01-26T17:19:25.555Z,-0.67
2017-01-26T17:19:56.987Z,-0.6
2017-01-26T17:20:28.623Z,-0.74
2017-01-26T17:21:00.326Z,-0.7
2017-01-26T17:21:32.261Z,-0.69
2017-01-26T17:22:03.824Z,-0.81
2017-01-26T17:22:56.993Z,-0.72
2017-01-26T17:23:29.614Z,-0.75
2017-01-26T17:24:22.615Z,-0.8
2017-01-26T17:24:54.278Z,-0.87
2017-01-26T17:25:25.881Z,-0.94
2017-01-26T17:25:57.740Z,-0.82
2017-01-26T17:26:29.592Z,-0.94
2017-01-26T17:27:01.580Z,-0.91
2017-01-26T17:27:33.199Z,-0.85
2017-01-26T17:28:04.711Z,-0.84
2017-01-26T17:28:58.323Z,-0.89
2017-01-26T17:29:51.461Z,-1.04
2017-01-26T17:30:22.919Z,-1.04
2017-01-26T17:30:54.915Z,-1.12
2017-01-26T17:31:46.608Z,-1.18
2017-01-26T17:32:18.217Z,-1.25
2017-01-26T17:32:50.544Z,-1.22
2017-01-26T17:33:21.719Z,-1.29
2017-01-26T17:33:53.180Z,-1.27
2017-01-26T17:34:25.535Z,-1.32
2017-01-26T17:34:57.137Z,-1.35
2017-01-26T17:35:28.722Z,-1.33
2017-01-26T17:36:00.657Z,-1.32
2017-01-26T18:09:08.534Z,-1.19
2017-01-26T18:09:40.172Z,-1.21
2017-01-26T18:10:12.080Z,-1.15
2017-01-26T18:10:43.744Z,-1.18
2017-01-26T18:11:15.965Z,-1.19
2017-01-26T18:11:47.247Z,-1.14
2017-01-26T18:12:20.749Z,-1.14
2017-01-26T18:12:50.682Z,-1.18
2017-01-26T18:13:22.514Z,-1.17
2017-01-26T18:14:16.497Z,-1.12
2017-01-26T18:14:47.771Z,-1.18
2017-01-26T18:15:19.860Z,-1.12
2017-01-26T18:15:51.230Z,-1.15
2017-01-26T18:16:24.882Z,-1.07
2017-01-26T18:16:56.156Z,-1.12
2017-01-26T18:17:27.163Z,-1.18
2017-01-26T18:17:59.168Z,-1.09
2017-01-26T18:18:31.304Z,-1.18
2017-01-26T18:19:02.561Z,-1.04
2017-01-26T18:19:34.558Z,-1.09
2017-01-26T18:20:25.908Z,-1.11
2017-01-26T19:09:35.238Z,-1.89
2017-01-26T19:10:06.991Z,-1.97
2017-01-26T19:10:38.527Z,-1.92
2017-01-26T19:11:10.413Z,-1.92
2017-01-26T19:11:41.835Z,-1.99
2017-01-26T19:12:14.046Z,-1.97
2017-01-26T19:12:45.535Z,-1.94
2017-01-26T19:13:17.162Z,-2
2017-01-26T19:13:48.661Z,-1.96
2017-01-26T19:14:18.421Z,-1.97
2017-01-26T19:15:11.056Z,-1.97
2017-01-26T19:15:43.055Z,-1.97
2017-01-26T19:16:14.920Z,-2.07
2017-01-26T19:16:46.645Z,-1.94
2017-01-26T19:17:18.090Z,-2.05
2017-01-26T19:17:50.001Z,-2.08
2017-01-26T19:18:21.558Z,-2.11
2017-01-26T19:18:53.129Z,-2.08
2017-01-26T19:19:24.498Z,-2.08
2017-01-26T19:19:56.058Z,-2.02
2017-01-26T19:20:28.022Z,-2.02
2017-01-26T19:20:59.794Z,-2.05
2017-01-26T19:21:31.498Z,-2.07
2017-01-26T19:22:02.949Z,-2
2017-01-26T19:22:35.009Z,-2.04
2017-01-26T19:23:06.483Z,-2.07
2017-01-26T19:23:39.064Z,-2.05
2017-01-26T19:24:10.088Z,-2.07
2017-01-26T19:24:42.099Z,-2.07
2017-01-26T19:25:13.635Z,-2.1
2017-01-26T19:26:06.944Z,-2.14
2017-01-26T19:26:38.715Z,-2.08
2017-01-26T19:27:10.512Z,-2.1
2017-01-26T19:27:42.041Z,-2.1
2017-01-26T19:28:13.969Z,-2.11
2017-01-26T19:28:46.027Z,-2.13
2017-01-26T19:29:17.524Z,-2.11
2017-01-26T19:29:49.106Z,-2.08
2017-01-26T19:30:20.567Z,-2.13
2017-01-26T19:31:14.648Z,-2.15
2017-01-26T19:31:45.776Z,-2.17
2017-01-26T19:32:17.827Z,-2.14
2017-01-26T19:33:11.998Z,-2.15
2017-01-26T19:33:43.808Z,-2.22
2017-01-26T19:34:14.953Z,-2.22
2017-01-26T19:34:46.678Z,-2.17
2017-01-26T19:35:18.375Z,-2.23
2017-01-26T19:35:48.469Z,-2.22
2017-01-26T19:36:20.533Z,-2.22
2017-01-26T19:36:52.577Z,-2.23
2017-01-26T19:37:23.830Z,-2.26
2017-01-26T19:37:55.637Z,-2.23
2017-01-26T19:38:27.115Z,-2.25
2017-01-26T19:38:59.495Z,-2.17
2017-01-26T19:39:30.924Z,-2.32
2017-01-26T19:40:02.592Z,-2.25
2017-01-26T20:08:31.402Z,-3.25
2017-01-26T20:09:03.279Z,-3.29
2017-01-26T20:09:35.413Z,-3.38
2017-01-26T20:10:28.971Z,-3.41
2017-01-26T20:11:00.382Z,-3.4
2017-01-26T20:11:32.032Z,-3.4
2017-01-26T20:12:03.702Z,-3.41
2017-01-26T20:12:35.623Z,-3.47
2017-01-26T20:13:07.650Z,-3.51
2017-01-26T20:13:39.406Z,-3.48
2017-01-26T20:14:10.729Z,-3.51
2017-01-26T20:14:42.970Z,-3.51
2017-01-26T20:15:14.487Z,-3.5
2017-01-26T20:15:45.694Z,-3.58
2017-01-26T20:16:17.953Z,-3.5
2017-01-26T20:16:49.719Z,-3.43
2017-01-26T20:17:21.566Z,-3.61
2017-01-26T20:17:53.010Z,-3.56
2017-01-26T20:18:24.827Z,-3.59
2017-01-26T20:18:56.149Z,-3.62
2017-01-26T20:19:27.374Z,-3.61
2017-01-26T20:19:57.843Z,-3.62
2017-01-26T20:20:30.425Z,-3.61
2017-01-26T20:21:01.525Z,-3.56
2017-01-26T20:21:33.587Z,-3.62
2017-01-26T20:22:27.444Z,-3.59
2017-01-26T20:23:20.451Z,-3.62
2017-01-26T20:23:52.360Z,-3.55
2017-01-26T20:24:23.976Z,-3.68
2017-01-26T20:24:55.654Z,-3.59
2017-01-26T20:25:27.265Z,-3.55
2017-01-26T20:25:59.179Z,-3.58
2017-01-26T20:26:30.763Z,-3.59
2017-01-26T20:27:00.475Z,-3.56
2017-01-26T20:28:10.560Z,-3.59
2017-01-26T21:09:23.581Z,-4.22
2017-01-26T21:09:54.850Z,-4.2
2017-01-26T21:10:46.742Z,-4.14
2017-01-26T21:11:19.040Z,-4.16
2017-01-26T21:12:10.256Z,-4.2
2017-01-26T21:12:42.042Z,-4.17
2017-01-26T21:13:13.694Z,-4.2
2017-01-26T21:13:45.619Z,-4.27
2017-01-26T21:14:16.864Z,-4.23
2017-01-26T21:14:49.155Z,-4.23
2017-01-26T21:15:20.986Z,-4.38
2017-01-26T21:15:52.303Z,-4.26
2017-01-26T21:16:24.101Z,-4.38
2017-01-26T21:16:55.834Z,-4.31
2017-01-26T21:17:27.871Z,-4.34
2017-01-26T21:18:20.833Z,-4.38
2017-01-26T21:19:13.160Z,-4.34
2017-01-26T21:19:44.542Z,-4.38
2017-01-26T21:20:16.440Z,-4.34
2017-01-26T21:20:48.079Z,-4.34
2017-01-26T21:21:19.928Z,-4.37
2017-01-26T21:21:51.494Z,-4.34
2017-01-26T21:22:23.075Z,-4.3
2017-01-26T21:22:54.744Z,-4.35
2017-01-26T21:23:26.252Z,-4.31
2017-01-26T21:23:58.254Z,-4.31
2017-01-26T21:24:30.118Z,-4.34
2017-01-26T21:25:01.701Z,-4.26
2017-01-26T21:25:33.536Z,-4.31
2017-01-26T21:26:05.081Z,-4.42
2017-01-26T21:26:36.803Z,-4.24
2017-01-26T21:27:08.628Z,-4.2
2017-01-26T21:28:02.143Z,-4.23
2017-01-26T21:28:34.048Z,-4.17
2017-01-26T21:29:05.602Z,-4.35
2017-01-26T21:29:36.982Z,-4.19
2017-01-26T21:30:09.128Z,-4.24
2017-01-26T21:30:41.091Z,-4.2
2017-01-26T21:31:12.365Z,-4.2
2017-01-26T21:31:44.460Z,-4.16
2017-01-26T21:32:15.406Z,-4.17
2017-01-26T21:32:48.071Z,-4.22
2017-01-26T21:33:41.206Z,-4.19
2017-01-26T21:34:13.069Z,-4.2
2017-01-26T21:34:44.626Z,-4.08
2017-01-26T21:35:16.345Z,-4.02
2017-01-26T21:35:48.337Z,-4.04
2017-01-26T21:36:20.172Z,-4.04
2017-01-26T21:36:51.689Z,-4.06
2017-01-26T21:37:23.204Z,-4.05
2017-01-26T21:38:16.626Z,-4.04
2017-01-26T21:39:06.277Z,-3.95
2017-01-26T22:08:09.688Z,-3.37
2017-01-26T22:08:41.031Z,-3.33
2017-01-26T22:09:13.061Z,-3.37
2017-01-26T22:09:44.469Z,-3.4
2017-01-26T22:10:16.938Z,-3.37
2017-01-26T22:10:48.033Z,-3.37
2017-01-26T22:11:20.216Z,-3.37
2017-01-26T22:11:51.315Z,-3.4
2017-01-26T22:12:23.844Z,-3.33
2017-01-26T22:12:55.295Z,-3.3
2017-01-26T22:13:48.123Z,-3.44
2017-01-26T22:14:20.303Z,-3.43
2017-01-26T22:15:11.869Z,-3.4
2017-01-26T22:15:43.614Z,-3.46
2017-01-26T22:16:15.780Z,-3.43
2017-01-26T22:16:47.179Z,-3.48
2017-01-26T22:17:18.478Z,-3.5
2017-01-26T22:18:12.282Z,-3.43
2017-01-26T22:19:05.749Z,-3.51
2017-01-26T22:19:37.474Z,-3.5
2017-01-26T22:20:09.276Z,-3.51
2017-01-26T22:20:40.830Z,-3.65
2017-01-26T22:21:12.536Z,-3.59
2017-01-26T22:21:44.256Z,-3.61
2017-01-26T22:22:36.092Z,-3.56
2017-01-26T22:23:07.500Z,-3.53
2017-01-26T22:23:39.354Z,-3.59
2017-01-26T22:24:11.010Z,-3.61
2017-01-26T22:24:43.336Z,-3.71
2017-01-26T22:25:14.782Z,-3.65
2017-01-26T22:25:46.534Z,-3.69
2017-01-26T22:26:18.661Z,-3.78
2017-01-26T22:26:49.720Z,-3.71
2017-01-26T22:27:21.382Z,-3.64
2017-01-26T22:27:53.174Z,-3.77
2017-01-26T22:28:24.810Z,-3.9
2017-01-26T22:28:56.485Z,-3.83
2017-01-26T22:29:28.682Z,-3.77
2017-01-26T22:30:00.045Z,-3.81
2017-01-26T22:30:31.750Z,-3.87
2017-01-26T22:31:03.669Z,-3.95
2017-01-26T22:31:35.198Z,-3.85
2017-01-26T22:32:06.912Z,-3.88
2017-01-26T22:32:38.746Z,-3.99
2017-01-26T22:33:08.818Z,-3.99
2017-01-26T22:33:38.900Z,-4.01
2017-01-26T23:07:45.996Z,-4.94
2017-01-26T23:08:18.252Z,-4.87
2017-01-26T23:08:49.763Z,-4.88
2017-01-26T23:09:21.285Z,-4.87
2017-01-26T23:09:53.066Z,-4.92
2017-01-26T23:10:24.814Z,-4.88
2017-01-26T23:10:56.407Z,-4.91
2017-01-26T23:11:28.389Z,-4.95
2017-01-26T23:11:59.665Z,-4.91
2017-01-26T23:12:53.310Z,-4.98
2017-01-26T23:13:24.708Z,-4.94
2017-01-26T23:13:56.900Z,-5.01
2017-01-26T23:14:28.692Z,-4.92
2017-01-26T23:15:00.080Z,-4.97
2017-01-26T23:15:32.180Z,-5
2017-01-26T23:16:03.720Z,-4.97
2017-01-26T23:16:35.177Z,-5.05
2017-01-26T23:17:07.237Z,-5.01
2017-01-26T23:17:38.685Z,-4.97
2017-01-26T23:18:10.375Z,-5.06
2017-01-26T23:18:42.256Z,-5.01
2017-01-26T23:19:14.290Z,-4.95
2017-01-26T23:19:45.509Z,-5.09
2017-01-26T23:20:17.313Z,-5.01
2017-01-26T23:20:48.951Z,-5.08
2017-01-26T23:21:20.971Z,-5.09
2017-01-26T23:22:14.392Z,-5.06
2017-01-26T23:22:46.284Z,-5.02
2017-01-26T23:23:17.780Z,-5.02
2017-01-26T23:23:49.296Z,-5.01
2017-01-26T23:24:21.243Z,-5.08
2017-01-26T23:24:53.173Z,-5.01
2017-01-26T23:25:46.517Z,-5.01
2017-01-26T23:26:17.886Z,-5
2017-01-26T23:26:49.939Z,-4.92
2017-01-26T23:27:21.852Z,-4.94
2017-01-26T23:27:53.278Z,-4.95
2017-01-26T23:28:25.267Z,-4.94
2017-01-26T23:28:56.839Z,-4.94
2017-01-26T23:29:28.564Z,-4.97
2017-01-26T23:29:58.890Z,-4.95
2017-01-26T23:30:28.511Z,-4.94
2017-01-26T23:30:58.540Z,-4.92
2017-01-26T23:31:49.106Z,-4.87
2017-01-26T23:32:39.315Z,-4.92
